ECO2827 SBRF-SBSV
Flight info
| Callsign | ECO2827 |
|---|---|
| Flight time | N/A |
| Altitude | 36000 |
| Route | MEXAR UZ14 AKPAS |
| Aircraft | B738/M-SDE2E3FGHIRWXY/LB1 |
Departure
| Time | 2026-04-27 11:45 |
|---|---|
| Airport | Recife/Guararapes - Gilberto Freyre International Airport (SBRF) |
Arrival
| Time | N/A |
|---|---|
| Airport | Deputado Luiz Eduardo Magalhães International Airport (SBSV) |
| Time | Latitude | Longitude | Altitude | Speed | Heading |
|---|---|---|---|---|---|
| 2026-04-27 11:14 | -8.13006 | -34.91965 | 42 ft | 0 kts | 71° |
| 2026-04-27 11:36 | -8.13008 | -34.91971 | 42 ft | 2 kts | 71° |
| 2026-04-27 11:36 | -8.13016 | -34.91984 | 42 ft | 2 kts | 40° |
| 2026-04-27 11:37 | -8.13029 | -34.91992 | 42 ft | 2 kts | 17° |
| 2026-04-27 11:37 | -8.13044 | -34.91994 | 42 ft | 2 kts | 352° |
| 2026-04-27 11:37 | -8.13052 | -34.91992 | 42 ft | 1 kts | 338° |
| 2026-04-27 11:37 | -8.13056 | -34.91990 | 42 ft | 0 kts | 341° |
| 2026-04-27 11:39 | -8.13044 | -34.91994 | 42 ft | 4 kts | 341° |
| 2026-04-27 11:40 | -8.13009 | -34.92016 | 42 ft | 8 kts | 311° |
| 2026-04-27 11:40 | -8.12960 | -34.92064 | 42 ft | 11 kts | 333° |
| 2026-04-27 11:40 | -8.12874 | -34.92095 | 42 ft | 14 kts | 343° |
| 2026-04-27 11:40 | -8.12772 | -34.92127 | 42 ft | 16 kts | 342° |
| 2026-04-27 11:41 | -8.12655 | -34.92167 | 42 ft | 19 kts | 341° |
| 2026-04-27 11:41 | -8.12526 | -34.92210 | 42 ft | 20 kts | 342° |
| 2026-04-27 11:41 | -8.12383 | -34.92260 | 42 ft | 23 kts | 340° |
| 2026-04-27 11:41 | -8.12234 | -34.92305 | 42 ft | 21 kts | 341° |
| 2026-04-27 11:42 | -8.12088 | -34.92353 | 42 ft | 22 kts | 341° |
| 2026-04-27 11:42 | -8.11941 | -34.92403 | 42 ft | 23 kts | 341° |
| 2026-04-27 11:42 | -8.11782 | -34.92455 | 42 ft | 24 kts | 341° |
| 2026-04-27 11:42 | -8.11630 | -34.92508 | 42 ft | 4 kts | 332° |
| 2026-04-27 11:43 | -8.11627 | -34.92509 | 42 ft | 1 kts | 330° |
| 2026-04-27 11:43 | -8.11605 | -34.92523 | 42 ft | 6 kts | 329° |
| 2026-04-27 11:43 | -8.11559 | -34.92558 | 42 ft | 10 kts | 321° |
| 2026-04-27 11:43 | -8.11493 | -34.92612 | 42 ft | 13 kts | 319° |
| 2026-04-27 11:44 | -8.11428 | -34.92683 | 42 ft | 13 kts | 272° |
| 2026-04-27 11:44 | -8.11500 | -34.92696 | 42 ft | 0 kts | 157° |
| 2026-04-27 11:44 | -8.11560 | -34.92674 | 42 ft | 37 kts | 162° |
| 2026-04-27 11:45 | -8.12057 | -34.92511 | 42 ft | 109 kts | 163° |
| 2026-04-27 11:45 | -8.12627 | -34.92320 | 43 ft | 147 kts | 163° |
| 2026-04-27 11:45 | -8.14091 | -34.91858 | 658 ft | 164 kts | 164° |
| 2026-04-27 11:45 | -8.15194 | -34.91491 | 1154 ft | 179 kts | 160° |
| 2026-04-27 11:46 | -8.16429 | -34.91028 | 1533 ft | 202 kts | 160° |
| 2026-04-27 11:46 | -8.17838 | -34.90525 | 1768 ft | 223 kts | 161° |
| 2026-04-27 11:46 | -8.19343 | -34.89990 | 2025 ft | 237 kts | 161° |
| 2026-04-27 11:46 | -8.20925 | -34.89435 | 2482 ft | 242 kts | 162° |
| 2026-04-27 11:47 | -8.22564 | -34.89043 | 3011 ft | 241 kts | 179° |
| 2026-04-27 11:47 | -8.24198 | -34.89381 | 3549 ft | 240 kts | 197° |
| 2026-04-27 11:47 | -8.25789 | -34.89856 | 4032 ft | 242 kts | 196° |
| 2026-04-27 11:47 | -8.27420 | -34.90315 | 4506 ft | 243 kts | 195° |
| 2026-04-27 11:48 | -8.29062 | -34.90765 | 4985 ft | 245 kts | 194° |
| 2026-04-27 11:48 | -8.30704 | -34.91199 | 5445 ft | 246 kts | 195° |
| 2026-04-27 11:48 | -8.32350 | -34.91637 | 5896 ft | 247 kts | 195° |
| 2026-04-27 11:48 | -8.34028 | -34.92091 | 6360 ft | 248 kts | 195° |
| 2026-04-27 11:49 | -8.35709 | -34.92541 | 6810 ft | 250 kts | 194° |
| 2026-04-27 11:49 | -8.37384 | -34.92986 | 7257 ft | 251 kts | 194° |
| 2026-04-27 11:49 | -8.39089 | -34.93438 | 7704 ft | 252 kts | 195° |
| 2026-04-27 11:49 | -8.40786 | -34.93891 | 8009 ft | 257 kts | 195° |
| 2026-04-27 11:50 | -8.42506 | -34.94350 | 7980 ft | 254 kts | 195° |
| 2026-04-27 11:50 | -8.44192 | -34.94857 | 7993 ft | 251 kts | 202° |
| 2026-04-27 11:50 | -8.45704 | -34.95772 | 8243 ft | 255 kts | 215° |
| 2026-04-27 11:50 | -8.47127 | -34.96843 | 8708 ft | 256 kts | 216° |
| 2026-04-27 11:51 | -8.48542 | -34.97912 | 9112 ft | 258 kts | 216° |
| 2026-04-27 11:51 | -8.49987 | -34.98997 | 9556 ft | 258 kts | 215° |
| 2026-04-27 11:51 | -8.52937 | -35.01188 | 10545 ft | 267 kts | 215° |
| 2026-04-27 11:52 | -8.54432 | -35.02301 | 11141 ft | 277 kts | 215° |
| 2026-04-27 11:52 | -8.56059 | -35.03509 | 11306 ft | 302 kts | 215° |
| 2026-04-27 11:52 | -8.57818 | -35.04813 | 11450 ft | 326 kts | 215° |
| 2026-04-27 11:52 | -8.59701 | -35.06210 | 11897 ft | 338 kts | 216° |
| 2026-04-27 11:53 | -8.61609 | -35.07620 | 12501 ft | 346 kts | 216° |
| 2026-04-27 11:53 | -8.63570 | -35.09080 | 13213 ft | 350 kts | 216° |
| 2026-04-27 11:53 | -8.65531 | -35.10542 | 13925 ft | 353 kts | 216° |
| 2026-04-27 11:53 | -8.67503 | -35.12011 | 14630 ft | 357 kts | 216° |
| 2026-04-27 11:54 | -8.69524 | -35.13516 | 15350 ft | 361 kts | 216° |
| 2026-04-27 11:54 | -8.71545 | -35.15020 | 16039 ft | 365 kts | 216° |
| 2026-04-27 11:54 | -8.73592 | -35.16543 | 16719 ft | 368 kts | 216° |
| 2026-04-27 11:54 | -8.75676 | -35.18094 | 17383 ft | 372 kts | 216° |
| 2026-04-27 11:55 | -8.77752 | -35.19639 | 18026 ft | 376 kts | 216° |
| 2026-04-27 11:55 | -8.79858 | -35.21206 | 18652 ft | 379 kts | 216° |
| 2026-04-27 11:55 | -8.81982 | -35.22788 | 19268 ft | 383 kts | 216° |
| 2026-04-27 11:55 | -8.84149 | -35.24401 | 19870 ft | 386 kts | 216° |
| 2026-04-27 11:56 | -8.86324 | -35.26020 | 20461 ft | 390 kts | 216° |
| 2026-04-27 11:56 | -8.88513 | -35.27649 | 21030 ft | 393 kts | 216° |
| 2026-04-27 11:56 | -8.90750 | -35.29252 | 21587 ft | 396 kts | 214° |
| 2026-04-27 11:56 | -8.93030 | -35.30848 | 22130 ft | 400 kts | 214° |
| 2026-04-27 11:57 | -8.95332 | -35.32457 | 22661 ft | 403 kts | 214° |
| 2026-04-27 11:57 | -8.97616 | -35.34056 | 23170 ft | 406 kts | 214° |
| 2026-04-27 11:57 | -8.99953 | -35.35693 | 23673 ft | 409 kts | 214° |
| 2026-04-27 11:57 | -9.02271 | -35.37320 | 24159 ft | 412 kts | 214° |
| 2026-04-27 11:58 | -9.04661 | -35.38997 | 24640 ft | 415 kts | 214° |
| 2026-04-27 11:58 | -9.07023 | -35.40656 | 25106 ft | 418 kts | 214° |
| 2026-04-27 11:58 | -9.09424 | -35.42343 | 25558 ft | 421 kts | 214° |
| 2026-04-27 11:58 | -9.11828 | -35.44033 | 26003 ft | 424 kts | 214° |
| 2026-04-27 11:59 | -9.14256 | -35.45740 | 26432 ft | 427 kts | 214° |
| 2026-04-27 11:59 | -9.16714 | -35.47469 | 26860 ft | 430 kts | 214° |
| 2026-04-27 11:59 | -9.19174 | -35.49199 | 27269 ft | 432 kts | 214° |
| 2026-04-27 11:59 | -9.21651 | -35.50941 | 27676 ft | 435 kts | 214° |
| 2026-04-27 12:00 | -9.24119 | -35.52679 | 28063 ft | 438 kts | 214° |
| 2026-04-27 12:00 | -9.26610 | -35.54432 | 28449 ft | 440 kts | 214° |
| 2026-04-27 12:00 | -9.29145 | -35.56217 | 28823 ft | 443 kts | 214° |
| 2026-04-27 12:00 | -9.31678 | -35.58001 | 29193 ft | 445 kts | 214° |
| 2026-04-27 12:01 | -9.34197 | -35.59775 | 29545 ft | 448 kts | 214° |
| 2026-04-27 12:01 | -9.36739 | -35.61566 | 29894 ft | 450 kts | 214° |
| 2026-04-27 12:01 | -9.39342 | -35.63400 | 30237 ft | 453 kts | 214° |
| 2026-04-27 12:01 | -9.41899 | -35.65202 | 30566 ft | 455 kts | 215° |
| 2026-04-27 12:02 | -9.44125 | -35.66771 | 30862 ft | 457 kts | 215° |